Time;durP1;ratioP1;P1;durP2;ratioP2;P2;SDS_P1;SDS_P2;PMS_P1;PMS_P2;Temp;Humidity;BMP_temperature;BMP_pressure;BME280_temperature;BME280_humidity;BME280_pressure;Samples;Min_cycle;Max_cycle;Signal;HPM_P1;HPM_P2
2023/09/25 00:00:00;;;;;;;2.80;1.73;;;13.10;99.90;;;;;;5093982;28;20046;-69
2023/09/25 00:02:28;;;;;;;5.45;1.83;;;13.10;99.90;;;;;;5093927;28;20077;-69
2023/09/25 00:04:54;;;;;;;9.90;2.22;;;13.20;99.90;;;;;;5092228;28;20448;-69
2023/09/25 00:07:23;;;;;;;9.60;2.10;;;13.20;99.90;;;;;;5093731;28;20491;-70
2023/09/25 00:09:50;;;;;;;4.75;2.15;;;13.20;99.90;;;;;;5093257;28;20043;-69
2023/09/25 00:12:17;;;;;;;4.47;2.13;;;13.30;99.90;;;;;;5110293;28;20137;-69
2023/09/25 00:14:44;;;;;;;3.00;1.67;;;13.20;99.90;;;;;;5097629;28;20058;-69
2023/09/25 00:17:11;;;;;;;3.75;1.70;;;13.30;99.90;;;;;;5097416;28;20047;-70
2023/09/25 00:19:37;;;;;;;5.30;2.10;;;13.30;99.90;;;;;;5096907;28;20407;-69
2023/09/25 00:22:04;;;;;;;3.20;1.90;;;13.30;99.90;;;;;;5097485;28;20047;-70
2023/09/25 00:24:33;;;;;;;4.43;1.83;;;13.30;99.90;;;;;;5097461;28;20055;-70
2023/09/25 00:26:59;;;;;;;5.75;1.85;;;13.30;99.90;;;;;;5093722;28;20518;-70
2023/09/25 00:29:26;;;;;;;3.03;1.77;;;13.30;99.90;;;;;;5097160;28;20123;-69
2023/09/25 00:31:54;;;;;;;5.57;1.90;;;13.30;99.90;;;;;;5097110;28;20046;-70
2023/09/25 00:34:21;;;;;;;3.55;1.70;;;13.30;99.90;;;;;;5097352;28;20047;-71
2023/09/25 00:36:47;;;;;;;4.93;1.98;;;13.30;99.90;;;;;;5097339;28;20096;-70
2023/09/25 00:39:14;;;;;;;3.47;1.55;;;13.30;99.90;;;;;;5097083;28;20917;-70
2023/09/25 00:41:43;;;;;;;3.40;1.73;;;13.30;99.90;;;;;;5097514;28;20047;-70
2023/09/25 00:44:09;;;;;;;5.85;1.92;;;13.20;99.90;;;;;;5097341;28;20059;-70
2023/09/25 00:46:37;;;;;;;4.88;2.03;;;13.30;99.90;;;;;;5097082;28;20039;-69
2023/09/25 00:49:04;;;;;;;4.53;1.85;;;13.30;99.90;;;;;;5115222;28;20131;-69
2023/09/25 00:51:31;;;;;;;6.47;1.77;;;13.20;99.90;;;;;;5095861;28;20052;-68
2023/09/25 00:53:58;;;;;;;3.20;1.98;;;13.20;99.90;;;;;;5096764;28;20051;-68
2023/09/25 00:56:25;;;;;;;5.32;1.98;;;13.20;99.90;;;;;;5096798;28;20052;-68
2023/09/25 00:58:54;;;;;;;3.50;2.03;;;13.10;99.90;;;;;;5096674;28;20071;-68
2023/09/25 01:01:21;;;;;;;4.07;2.20;;;13.10;99.90;;;;;;5096906;28;20065;-69
2023/09/25 01:03:48;;;;;;;3.38;1.88;;;13.10;99.90;;;;;;5092541;28;20058;-68
2023/09/25 01:06:15;;;;;;;2.58;1.63;;;13.10;99.90;;;;;;5096257;28;20044;-68
2023/09/25 01:08:42;;;;;;;4.82;2.53;;;13.10;99.90;;;;;;5095066;28;20063;-68
2023/09/25 01:11:09;;;;;;;4.10;2.00;;;13.10;99.90;;;;;;5096581;28;20051;-68
2023/09/25 01:13:36;;;;;;;4.15;2.10;;;13.00;99.90;;;;;;5096076;28;20055;-68
2023/09/25 01:16:04;;;;;;;3.08;1.73;;;13.00;99.90;;;;;;5096789;28;20047;-68
2023/09/25 01:18:31;;;;;;;5.18;1.90;;;13.00;99.90;;;;;;5092954;28;20385;-68
2023/09/25 01:20:58;;;;;;;3.72;2.20;;;12.90;99.90;;;;;;5096240;28;20487;-69
2023/09/25 01:23:27;;;;;;;3.40;2.25;;;12.90;99.90;;;;;;5096370;28;20070;-68
2023/09/25 01:25:54;;;;;;;4.10;1.80;;;12.80;99.90;;;;;;5114786;28;20059;-68
2023/09/25 01:28:21;;;;;;;5.15;2.03;;;12.90;99.90;;;;;;5096147;28;20060;-69
2023/09/25 01:30:48;;;;;;;2.47;1.67;;;12.80;99.90;;;;;;5096349;28;20819;-69
2023/09/25 01:33:17;;;;;;;4.85;2.08;;;12.80;99.90;;;;;;5096470;28;20446;-69
2023/09/25 01:35:44;;;;;;;4.63;2.47;;;12.70;99.90;;;;;;5095836;28;20073;-69
2023/09/25 01:38:11;;;;;;;4.55;2.00;;;12.70;99.90;;;;;;5096119;28;20057;-70
2023/09/25 01:40:39;;;;;;;5.80;1.80;;;12.70;99.90;;;;;;5096146;28;20043;-69
2023/09/25 01:43:06;;;;;;;5.20;2.35;;;12.70;99.90;;;;;;5094447;28;20051;-70
2023/09/25 01:45:33;;;;;;;4.72;2.45;;;12.60;99.90;;;;;;5096320;28;20043;-70
2023/09/25 01:48:00;;;;;;;3.30;2.20;;;12.60;99.90;;;;;;5095894;28;20047;-70
2023/09/25 01:50:29;;;;;;;3.58;2.35;;;12.60;99.90;;;;;;5095745;28;20043;-70
2023/09/25 01:52:58;;;;;;;4.47;1.98;;;12.60;99.90;;;;;;5095850;28;20051;-70
2023/09/25 01:55:29;;;;;;;4.38;2.20;;;12.50;99.90;;;;;;5095521;28;20776;-70
2023/09/25 01:57:57;;;;;;;;;;;12.50;99.90;;;;;;5096098;28;20490;-70
2023/09/25 02:00:24;;;;;;;6.93;2.38;;;12.50;99.90;;;;;;5095693;28;20376;-70
2023/09/25 02:02:51;;;;;;;3.28;2.13;;;12.50;99.90;;;;;;5113505;28;20070;-70
2023/09/25 02:05:18;;;;;;;3.83;2.33;;;12.50;99.90;;;;;;5093384;28;20051;-70
2023/09/25 02:07:45;;;;;;;4.30;2.00;;;12.40;99.90;;;;;;5093545;28;20055;-70
2023/09/25 02:10:12;;;;;;;4.35;2.45;;;12.50;99.90;;;;;;5094375;28;20052;-70
2023/09/25 02:12:39;;;;;;;8.80;2.90;;;12.40;99.90;;;;;;5095865;28;20395;-70
2023/09/25 02:15:09;;;;;;;5.93;2.42;;;12.40;99.90;;;;;;5095399;28;20051;-70
2023/09/25 02:17:36;;;;;;;3.97;2.53;;;12.40;99.90;;;;;;5093708;28;20519;-70
2023/09/25 02:20:16;;;;;;;4.25;2.03;;;12.40;99.90;;;;;;5091379;28;20050;-71
2023/09/25 02:22:43;;;;;;;4.75;2.65;;;12.40;99.90;;;;;;5112201;28;20122;-70
2023/09/25 02:25:11;;;;;;;4.93;2.58;;;12.30;99.90;;;;;;5095020;28;20066;-69
2023/09/25 02:27:38;;;;;;;5.35;2.55;;;12.30;99.90;;;;;;5095624;28;20122;-69
2023/09/25 02:30:09;;;;;;;5.90;2.67;;;12.30;99.90;;;;;;5092972;28;20063;-70
2023/09/25 02:32:36;;;;;;;4.57;2.30;;;12.30;99.90;;;;;;5094381;28;21289;-70
2023/09/25 02:35:04;;;;;;;5.30;2.40;;;12.30;99.90;;;;;;5094471;28;20048;-69
2023/09/25 02:37:31;;;;;;;3.58;2.10;;;12.30;99.90;;;;;;5094278;28;20050;-69
2023/09/25 02:39:58;;;;;;;3.90;2.58;;;12.30;99.90;;;;;;5095296;28;20052;-69
2023/09/25 02:42:25;;;;;;;4.68;2.42;;;12.30;99.90;;;;;;5094870;28;20050;-68
2023/09/25 02:44:52;;;;;;;4.07;2.42;;;12.30;99.90;;;;;;5094636;28;20552;-68
2023/09/25 02:47:20;;;;;;;5.82;2.40;;;12.20;99.90;;;;;;5095194;28;20506;-69
2023/09/25 02:49:47;;;;;;;5.93;2.50;;;12.20;99.90;;;;;;5095034;28;20044;-68
2023/09/25 02:52:14;;;;;;;5.43;2.97;;;12.20;99.90;;;;;;5092190;28;20496;-69
2023/09/25 02:54:41;;;;;;;6.63;2.40;;;12.20;99.90;;;;;;5094060;28;20112;-68
2023/09/25 02:57:08;;;;;;;5.10;2.97;;;12.20;99.90;;;;;;5092542;28;20043;-68
2023/09/25 02:59:35;;;;;;;4.50;2.80;;;12.20;99.90;;;;;;5094038;28;20047;-68
2023/09/25 03:02:03;;;;;;;6.65;2.78;;;12.20;99.90;;;;;;5094965;28;20055;-69
2023/09/25 03:04:31;;;;;;;4.97;2.60;;;12.20;99.90;;;;;;5094735;28;20087;-69
2023/09/25 03:06:58;;;;;;;4.18;2.65;;;12.20;99.90;;;;;;5094410;28;20039;-69
2023/09/25 03:09:25;;;;;;;4.05;2.40;;;12.20;99.90;;;;;;5094684;28;20055;-69
2023/09/25 03:11:52;;;;;;;4.13;2.60;;;12.20;99.90;;;;;;5092873;28;20055;-69
2023/09/25 03:14:19;;;;;;;4.75;3.05;;;12.20;99.90;;;;;;5112068;28;20043;-69
2023/09/25 03:16:46;;;;;;;5.38;2.65;;;12.10;99.90;;;;;;5094393;28;20059;-69
2023/09/25 03:19:14;;;;;;;5.90;3.17;;;12.10;99.90;;;;;;5094547;28;20051;-69
2023/09/25 03:21:42;;;;;;;5.05;2.63;;;12.10;99.90;;;;;;5093758;28;20052;-69
2023/09/25 03:24:09;;;;;;;8.07;3.13;;;12.10;99.90;;;;;;5094445;28;20097;-69
2023/09/25 03:26:37;;;;;;;4.93;2.70;;;12.10;99.90;;;;;;5093760;28;20492;-69
2023/09/25 03:29:06;;;;;;;5.47;2.97;;;12.10;99.90;;;;;;5094600;28;20391;-69
2023/09/25 03:31:33;;;;;;;4.03;2.78;;;12.10;99.90;;;;;;5094006;28;20074;-69
2023/09/25 03:34:00;;;;;;;4.95;3.05;;;12.10;99.90;;;;;;5093718;28;20062;-69
2023/09/25 03:36:27;;;;;;;6.13;2.80;;;12.10;99.90;;;;;;5094298;28;20051;-69
2023/09/25 03:38:56;;;;;;;4.88;2.63;;;12.10;99.90;;;;;;5094091;28;20499;-69
2023/09/25 03:41:23;;;;;;;4.40;2.97;;;12.10;99.90;;;;;;5093699;28;20055;-68
2023/09/25 03:43:50;;;;;;;5.57;2.85;;;12.10;99.90;;;;;;5094294;28;20112;-68
2023/09/25 03:46:17;;;;;;;3.78;2.33;;;12.10;99.90;;;;;;5094118;28;20058;-69
2023/09/25 03:48:45;;;;;;;5.28;2.70;;;12.10;99.90;;;;;;5093896;28;20352;-70
2023/09/25 03:51:12;;;;;;;3.78;2.50;;;12.00;99.90;;;;;;5093964;28;20039;-70
2023/09/25 03:53:39;;;;;;;4.28;2.33;;;12.00;99.90;;;;;;5094195;28;20411;-70
2023/09/25 03:56:07;;;;;;;5.45;3.30;;;12.00;99.90;;;;;;5091196;28;20056;-70
2023/09/25 03:58:34;;;;;;;5.20;2.90;;;12.00;99.90;;;;;;5112032;28;20044;-70
2023/09/25 04:01:01;;;;;;;4.53;2.90;;;12.00;99.90;;;;;;5094054;28;20120;-69
2023/09/25 04:03:28;;;;;;;7.30;3.00;;;12.00;99.90;;;;;;5111519;28;20530;-69
2023/09/25 04:05:55;;;;;;;9.07;3.55;;;12.00;99.90;;;;;;5092282;28;20531;-69
2023/09/25 04:08:22;;;;;;;6.85;2.67;;;12.00;99.90;;;;;;5112242;28;20054;-69
2023/09/25 04:10:50;;;;;;;4.00;2.50;;;12.00;99.90;;;;;;5091566;28;20044;-68
2023/09/25 04:13:22;;;;;;;5.10;2.85;;;12.00;99.90;;;;;;5093836;28;20457;-68
2023/09/25 04:15:50;;;;;;;6.05;3.30;;;12.00;99.90;;;;;;5092429;28;20476;-69
2023/09/25 04:18:18;;;;;;;5.00;3.15;;;12.10;99.90;;;;;;5093700;28;20055;-69
2023/09/25 04:20:45;;;;;;;7.20;2.83;;;12.00;99.90;;;;;;5093869;28;20051;-69
2023/09/25 04:23:14;;;;;;;4.95;2.55;;;12.10;99.90;;;;;;5093390;28;20422;-69
2023/09/25 04:25:41;;;;;;;5.38;2.80;;;12.00;99.90;;;;;;5093803;28;20129;-69
2023/09/25 04:28:08;;;;;;;5.43;2.70;;;12.10;99.90;;;;;;5094050;28;20043;-70
2023/09/25 04:30:37;;;;;;;5.05;3.15;;;12.10;99.90;;;;;;5093269;28;20139;-70
2023/09/25 04:33:04;;;;;;;5.40;2.72;;;12.10;99.90;;;;;;5093788;28;20048;-70
2023/09/25 04:35:32;;;;;;;4.18;2.80;;;12.10;99.90;;;;;;5093760;28;20051;-69
2023/09/25 04:37:59;;;;;;;4.85;2.72;;;12.10;99.90;;;;;;5092927;28;20047;-70
2023/09/25 04:40:30;;;;;;;5.95;3.05;;;12.10;99.90;;;;;;5093435;28;20503;-69
2023/09/25 04:42:57;;;;;;;;;;;12.10;99.90;;;;;;5081988;28;20048;-70
2023/09/25 04:45:25;;;;;;;6.28;3.00;;;12.10;99.90;;;;;;5086127;28;20015;-71
2023/09/25 04:47:53;;;;;;;4.28;2.40;;;12.10;99.90;;;;;;5085581;28;20048;-69
2023/09/25 04:50:21;;;;;;;5.20;3.45;;;12.10;99.90;;;;;;5086615;28;20062;-69
2023/09/25 04:52:48;;;;;;;5.13;2.95;;;12.10;99.90;;;;;;5087693;28;20043;-69
2023/09/25 04:55:15;;;;;;;5.57;2.88;;;12.10;99.90;;;;;;5088191;28;20043;-68
2023/09/25 04:57:44;;;;;;;4.82;2.97;;;12.10;99.90;;;;;;5088675;28;20445;-69
2023/09/25 05:00:16;;;;;;;6.28;2.85;;;12.10;99.90;;;;;;5109398;28;20443;-69
2023/09/25 05:02:45;;;;;;;4.40;2.38;;;12.10;99.90;;;;;;5090654;28;20047;-69
2023/09/25 05:05:13;;;;;;;7.07;2.92;;;12.10;99.90;;;;;;5087788;28;20548;-69
2023/09/25 05:07:42;;;;;;;5.80;3.25;;;12.10;99.90;;;;;;5088293;28;20047;-67
2023/09/25 05:10:11;;;;;;;6.45;3.25;;;12.00;99.90;;;;;;5090466;28;20051;-68
2023/09/25 05:12:38;;;;;;;6.97;2.90;;;12.00;99.90;;;;;;5091919;28;20047;-69
2023/09/25 05:15:07;;;;;;;7.60;3.08;;;12.00;99.90;;;;;;5106901;28;20047;-69
2023/09/25 05:17:35;;;;;;;4.88;3.00;;;12.00;99.90;;;;;;5094516;28;20039;-68
2023/09/25 05:20:04;;;;;;;5.57;3.08;;;12.00;99.90;;;;;;5106436;28;20185;-69
2023/09/25 05:22:32;;;;;;;4.38;2.90;;;12.00;99.90;;;;;;5093122;28;20059;-68
2023/09/25 05:24:59;;;;;;;4.20;2.78;;;12.00;99.90;;;;;;5088695;28;20051;-70
2023/09/25 05:27:26;;;;;;;4.00;2.88;;;12.00;99.90;;;;;;5093298;28;20052;-70
2023/09/25 05:29:56;;;;;;;6.13;3.08;;;11.90;99.90;;;;;;5088001;28;20506;-71
2023/09/25 05:32:23;;;;;;;5.40;3.45;;;11.90;99.90;;;;;;5091379;28;20052;-70
2023/09/25 05:34:50;;;;;;;6.25;3.38;;;11.90;99.90;;;;;;5090761;28;20056;-70
2023/09/25 05:37:17;;;;;;;6.20;3.50;;;11.90;99.90;;;;;;5090136;28;20047;-67
2023/09/25 05:39:45;;;;;;;4.68;2.92;;;11.90;99.90;;;;;;5091201;28;20051;-68
2023/09/25 05:42:12;;;;;;;4.32;3.00;;;11.90;99.90;;;;;;5088446;28;20051;-67
2023/09/25 05:44:39;;;;;;;5.57;3.00;;;11.90;99.90;;;;;;5110199;28;20052;-67
2023/09/25 05:47:06;;;;;;;6.70;3.08;;;11.90;99.90;;;;;;5090277;28;20040;-68
2023/09/25 05:49:33;;;;;;;5.45;3.45;;;11.90;99.90;;;;;;5092569;28;20051;-68
2023/09/25 05:51:59;;;;;;;4.82;2.90;;;11.90;99.90;;;;;;5108421;28;20069;-68
2023/09/25 05:54:26;;;;;;;6.13;2.70;;;12.00;99.90;;;;;;5092789;28;20105;-68
2023/09/25 05:56:55;;;;;;;5.65;3.35;;;12.00;99.90;;;;;;5088649;28;20052;-67
2023/09/25 05:59:21;;;;;;;4.85;2.70;;;12.00;99.90;;;;;;5109327;28;20419;-67
2023/09/25 06:01:48;;;;;;;5.43;3.17;;;12.00;99.90;;;;;;5089785;28;20040;-66
2023/09/25 06:04:16;;;;;;;3.47;2.42;;;12.10;99.90;;;;;;5093929;28;20047;-66
2023/09/25 06:06:43;;;;;;;4.05;2.70;;;12.10;99.90;;;;;;5107034;28;20052;-67
2023/09/25 06:09:15;;;;;;;5.47;3.10;;;12.10;99.90;;;;;;5091824;28;20079;-68
2023/09/25 06:11:43;;;;;;;5.10;3.00;;;12.10;99.90;;;;;;5088548;28;20051;-68
2023/09/25 06:14:12;;;;;;;4.70;3.10;;;12.20;99.90;;;;;;5087393;28;20051;-67
2023/09/25 06:16:40;;;;;;;5.07;3.08;;;12.20;99.90;;;;;;5093127;28;20063;-67
2023/09/25 06:19:08;;;;;;;6.00;3.25;;;12.30;99.90;;;;;;5091550;28;20062;-68
2023/09/25 06:21:35;;;;;;;6.20;2.88;;;12.40;99.90;;;;;;5094101;28;20039;-68
2023/09/25 06:24:03;;;;;;;6.63;3.15;;;12.50;99.90;;;;;;5090467;28;20134;-68
2023/09/25 06:26:31;;;;;;;6.72;3.13;;;12.50;99.90;;;;;;5090791;28;20100;-68
2023/09/25 06:28:58;;;;;;;4.93;3.17;;;12.60;99.90;;;;;;5087566;28;20050;-68
2023/09/25 06:31:26;;;;;;;5.60;2.70;;;12.60;99.90;;;;;;5093536;28;20047;-68
2023/09/25 06:33:54;;;;;;;5.80;3.13;;;12.70;99.90;;;;;;5087298;28;20050;-68
2023/09/25 06:36:21;;;;;;;6.68;3.00;;;12.80;99.90;;;;;;5093137;28;20058;-68
2023/09/25 06:38:48;;;;;;;4.15;2.72;;;12.90;99.90;;;;;;5086801;28;20043;-68
2023/09/25 06:41:15;;;;;;;4.82;2.83;;;12.90;99.90;;;;;;5092954;28;20442;-68
2023/09/25 06:43:42;;;;;;;4.72;2.75;;;13.00;99.90;;;;;;5087767;28;20047;-68
2023/09/25 06:46:09;;;;;;;4.28;2.42;;;13.00;99.90;;;;;;5091792;28;20519;-68
2023/09/25 06:48:37;;;;;;;4.40;2.97;;;13.10;99.90;;;;;;5091080;28;20081;-69
2023/09/25 06:51:04;;;;;;;4.55;2.72;;;13.10;99.90;;;;;;5106957;28;20044;-67
2023/09/25 06:53:31;;;;;;;5.07;2.88;;;13.20;99.90;;;;;;5108051;28;20069;-67
2023/09/25 06:55:58;;;;;;;7.43;3.50;;;13.30;99.90;;;;;;5104630;28;20519;-66
2023/09/25 06:58:25;;;;;;;4.65;2.65;;;13.40;99.90;;;;;;5084000;28;20072;-67
2023/09/25 07:00:52;;;;;;;6.13;2.58;;;13.40;99.90;;;;;;5089353;28;20077;-67
2023/09/25 07:03:19;;;;;;;5.00;3.03;;;13.50;99.90;;;;;;5093112;28;20047;-67
2023/09/25 07:05:47;;;;;;;5.55;2.67;;;13.60;99.90;;;;;;5088225;28;20450;-66
2023/09/25 07:08:15;;;;;;;4.95;2.20;;;13.60;99.90;;;;;;5089355;28;20039;-67
2023/09/25 07:10:46;;;;;;;5.13;2.47;;;13.70;99.90;;;;;;5104778;28;20465;-66
2023/09/25 07:13:13;;;;;;;4.85;2.45;;;13.80;99.90;;;;;;5086151;28;20051;-67
2023/09/25 07:15:40;;;;;;;6.72;2.50;;;14.00;99.90;;;;;;5093651;28;20039;-66
2023/09/25 07:18:07;;;;;;;4.88;2.33;;;14.10;99.90;;;;;;5087690;28;20143;-68
2023/09/25 07:20:34;;;;;;;4.28;2.35;;;14.10;99.90;;;;;;5111527;28;20043;-67
2023/09/25 07:23:02;;;;;;;4.97;2.83;;;14.20;99.90;;;;;;5110410;28;20051;-67
2023/09/25 07:25:29;;;;;;;3.65;2.10;;;14.20;99.90;;;;;;5094493;28;20054;-68
2023/09/25 07:27:56;;;;;;;4.35;2.40;;;14.30;99.90;;;;;;5093995;28;20124;-68
2023/09/25 07:30:23;;;;;;;6.70;2.70;;;14.40;99.90;;;;;;5094158;28;20048;-68
2023/09/25 07:32:51;;;;;;;6.63;2.30;;;14.50;99.90;;;;;;5111320;28;20063;-68
2023/09/25 07:35:18;;;;;;;6.93;2.40;;;14.60;99.90;;;;;;5094401;28;20044;-68
2023/09/25 07:37:47;;;;;;;5.07;2.67;;;14.90;99.90;;;;;;5094230;28;20078;-68
2023/09/25 07:40:18;;;;;;;6.00;2.55;;;15.10;99.90;;;;;;5093783;28;20093;-68
2023/09/25 07:42:45;;;;;;;5.72;2.65;;;15.30;99.90;;;;;;5094123;28;20047;-68
2023/09/25 07:45:14;;;;;;;6.78;2.30;;;15.70;99.90;;;;;;5112587;28;20052;-67
2023/09/25 07:47:42;;;;;;;5.55;2.17;;;15.90;99.90;;;;;;5091921;28;20407;-67
2023/09/25 07:50:10;;;;;;;6.30;2.05;;;16.10;99.90;;;;;;5094089;28;20466;-67
2023/09/25 07:52:38;;;;;;;5.38;2.20;;;16.30;99.90;;;;;;5094147;28;20044;-67
2023/09/25 07:55:11;;;;;;;5.60;2.88;;;16.40;99.90;;;;;;5109501;28;20044;-67
2023/09/25 07:57:40;;;;;;;4.65;2.40;;;16.70;99.90;;;;;;5093753;28;20073;-67
2023/09/25 08:00:25;;;;;;;3.90;2.20;;;16.90;99.90;;;;;;5093859;28;20051;-67
2023/09/25 08:02:53;;;;;;;3.95;2.30;;;17.00;99.90;;;;;;5111563;28;20039;-69
2023/09/25 08:05:21;;;;;;;5.55;2.40;;;16.90;99.90;;;;;;5094009;28;20146;-68
2023/09/25 08:07:50;;;;;;;5.70;2.92;;;16.80;99.90;;;;;;5097969;28;20046;-68
2023/09/25 08:10:18;;;;;;;5.05;2.20;;;16.70;99.90;;;;;;5095846;28;20514;-68
2023/09/25 08:12:47;;;;;;;3.58;2.15;;;16.60;99.90;;;;;;5096893;28;20101;-68
2023/09/25 08:15:14;;;;;;;5.65;2.25;;;16.60;99.90;;;;;;5096914;28;20117;-69
2023/09/25 08:17:44;;;;;;;4.25;2.20;;;16.70;99.90;;;;;;5111647;28;20050;-67
2023/09/25 08:20:18;;;;;;;3.63;2.17;;;16.70;99.90;;;;;;5092790;28;20101;-67
2023/09/25 08:22:45;;;;;;;4.60;1.95;;;16.70;99.90;;;;;;5091794;28;20131;-67
2023/09/25 08:25:12;;;;;;;7.13;2.58;;;16.70;99.90;;;;;;5111875;28;20039;-67
2023/09/25 08:27:40;;;;;;;2.95;1.80;;;16.90;99.90;;;;;;5093836;28;20136;-67
2023/09/25 08:30:09;;;;;;;3.55;2.33;;;17.10;99.90;;;;;;5093340;28;20135;-68
2023/09/25 08:32:36;;;;;;;4.57;2.27;;;17.10;99.90;;;;;;5093745;28;21207;-67
2023/09/25 08:35:04;;;;;;;6.30;2.35;;;17.30;99.90;;;;;;5097125;28;20052;-67
2023/09/25 08:37:31;;;;;;;5.40;2.40;;;17.60;99.90;;;;;;5085915;28;20077;-68
2023/09/25 08:39:58;;;;;;;4.53;2.00;;;18.00;99.90;;;;;;5089184;28;20557;-69
2023/09/25 08:42:26;;;;;;;5.07;1.95;;;18.30;99.90;;;;;;5091086;28;20066;-69
2023/09/25 08:44:55;;;;;;;13.35;2.95;;;18.50;99.90;;;;;;5092510;28;20096;-69
2023/09/25 08:47:23;;;;;;;4.30;2.13;;;19.00;99.90;;;;;;5091673;28;20534;-69
2023/09/25 08:49:51;;;;;;;4.50;1.65;;;19.70;99.90;;;;;;5112976;28;20047;-69
2023/09/25 08:52:18;;;;;;;8.10;3.00;;;20.30;99.90;;;;;;5090126;28;20043;-69
2023/09/25 08:54:45;;;;;;;4.13;2.00;;;20.70;99.90;;;;;;5089612;28;20043;-70
2023/09/25 08:57:12;;;;;;;3.22;1.92;;;21.20;99.90;;;;;;5087831;28;20251;-70
2023/09/25 08:59:40;;;;;;;11.88;2.30;;;21.90;99.80;;;;;;5095078;28;20047;-70
2023/09/25 09:02:08;;;;;;;3.35;1.90;;;22.40;98.30;;;;;;5093659;28;20047;-70
2023/09/25 09:04:37;;;;;;;3.08;1.98;;;22.50;96.80;;;;;;5094550;28;20052;-70
2023/09/25 09:07:05;;;;;;;5.65;2.00;;;22.80;96.30;;;;;;5092764;28;20047;-70
2023/09/25 09:09:33;;;;;;;5.00;1.88;;;22.50;95.80;;;;;;5109450;28;20145;-69
2023/09/25 09:12:00;;;;;;;6.40;2.50;;;22.30;95.30;;;;;;5092319;28;20383;-70
2023/09/25 09:14:34;;;;;;;4.30;1.83;;;22.30;95.60;;;;;;5091833;28;20052;-70
2023/09/25 09:17:04;;;;;;;3.25;2.00;;;22.80;94.70;;;;;;5091196;28;20063;-70
2023/09/25 09:19:36;;;;;;;5.65;2.05;;;23.00;94.40;;;;;;5090554;28;20130;-70
2023/09/25 09:22:06;;;;;;;3.13;1.92;;;23.20;93.80;;;;;;5110635;28;20047;-70
2023/09/25 09:24:33;;;;;;;;;;;23.10;93.90;;;;;;5093486;28;20087;-70
2023/09/25 09:27:01;;;;;;;4.22;2.00;;;23.00;93.70;;;;;;5094936;28;19919;-68
2023/09/25 09:29:28;;;;;;;5.25;1.90;;;22.80;94.10;;;;;;5092962;28;20559;-69
2023/09/25 09:31:56;;;;;;;3.33;1.90;;;22.90;94.60;;;;;;5093031;28;20452;-69
2023/09/25 09:34:24;;;;;;;3.63;1.70;;;23.20;94.80;;;;;;5090569;28;20564;-69
2023/09/25 09:36:52;;;;;;;3.63;2.20;;;23.50;94.40;;;;;;5092555;28;20843;-69
2023/09/25 09:39:25;;;;;;;7.63;2.10;;;23.70;93.20;;;;;;5089553;28;20048;-69
2023/09/25 09:41:52;;;;;;;3.42;2.03;;;23.90;93.20;;;;;;5110915;28;20079;-69
2023/09/25 09:44:20;;;;;;;4.60;1.77;;;23.90;93.20;;;;;;5091576;28;20080;-69
2023/09/25 09:46:50;;;;;;;5.00;1.85;;;24.10;92.90;;;;;;5090839;28;20095;-68
2023/09/25 09:49:21;;;;;;;2.88;1.77;;;24.30;91.80;;;;;;5091606;28;20050;-69
2023/09/25 09:51:49;;;;;;;4.38;1.88;;;24.10;92.20;;;;;;5090825;28;20055;-69
2023/09/25 09:54:18;;;;;;;3.05;1.63;;;24.40;91.90;;;;;;5092131;28;20048;-69
2023/09/25 09:56:48;;;;;;;3.72;1.60;;;24.80;91.90;;;;;;5109969;28;20062;-66
2023/09/25 09:59:16;;;;;;;7.88;2.35;;;25.30;91.10;;;;;;5094191;28;20040;-66
2023/09/25 10:01:45;;;;;;;5.97;2.10;;;25.00;91.00;;;;;;5109057;28;20071;-66
2023/09/25 10:04:13;;;;;;;4.80;1.60;;;25.00;91.30;;;;;;5093221;28;20483;-67
2023/09/25 10:06:48;;;;;;;7.47;2.00;;;25.20;91.20;;;;;;5091012;28;20060;-67
2023/09/25 10:09:16;;;;;;;3.03;1.38;;;25.30;90.60;;;;;;5092420;28;20048;-67
2023/09/25 10:11:44;;;;;;;8.02;2.20;;;25.80;90.60;;;;;;5090141;28;20072;-67
2023/09/25 10:14:12;;;;;;;4.47;1.70;;;26.50;90.20;;;;;;5092643;28;20533;-67
2023/09/25 10:16:57;;;;;;;9.38;1.90;;;26.50;88.30;;;;;;5088732;28;20059;-67
2023/09/25 10:19:45;;;;;;;6.20;2.10;;;26.90;87.20;;;;;;5091013;28;20067;-67
2023/09/25 10:22:13;;;;;;;3.92;1.90;;;26.60;86.00;;;;;;5088305;28;20047;-67
2023/09/25 10:24:42;;;;;;;4.95;1.65;;;26.50;87.90;;;;;;5111670;28;20403;-67
2023/09/25 10:27:11;;;;;;;4.28;1.48;;;26.90;87.30;;;;;;5092418;28;20055;-67
2023/09/25 10:29:39;;;;;;;5.72;1.60;;;27.20;87.10;;;;;;5092355;28;20641;-67
2023/09/25 10:32:09;;;;;;;3.75;1.75;;;27.40;85.50;;;;;;5093184;28;20131;-67
2023/09/25 10:34:39;;;;;;;;;;;27.40;85.70;;;;;;5107620;28;20096;-67
2023/09/25 10:37:06;;;;;;;2.83;1.50;;;27.10;84.10;;;;;;5111729;28;19920;-67
2023/09/25 10:39:33;;;;;;;2.90;1.42;;;27.10;86.20;;;;;;5087219;28;20468;-67
2023/09/25 10:42:06;;;;;;;3.92;1.77;;;27.40;85.40;;;;;;5094258;28;20043;-67
2023/09/25 10:44:35;;;;;;;5.07;1.50;;;27.40;84.90;;;;;;5087210;28;21378;-67
2023/09/25 10:47:07;;;;;;;4.22;1.60;;;27.20;84.80;;;;;;5109914;28;20044;-67
2023/09/25 10:49:35;;;;;;;3.83;1.60;;;27.00;83.40;;;;;;5087757;28;20067;-67
2023/09/25 10:52:03;;;;;;;3.03;1.45;;;27.10;83.20;;;;;;5088960;28;20059;-67
2023/09/25 10:54:30;;;;;;;2.30;1.17;;;27.40;83.90;;;;;;5091636;28;20044;-67
2023/09/25 10:56:59;;;;;;;4.72;1.65;;;27.70;83.40;;;;;;5086661;28;20411;-67
2023/09/25 10:59:26;;;;;;;2.88;1.55;;;27.80;82.90;;;;;;5090639;28;20101;-66
2023/09/25 11:01:53;;;;;;;2.97;1.70;;;28.40;82.80;;;;;;5090484;28;20059;-67
2023/09/25 11:04:21;;;;;;;2.80;1.85;;;28.50;80.90;;;;;;5089280;28;20498;-67
2023/09/25 11:06:49;;;;;;;2.78;1.63;;;28.60;81.80;;;;;;5090505;28;20410;-67
2023/09/25 11:09:17;;;;;;;4.25;1.50;;;28.00;80.20;;;;;;5093721;28;20043;-67
2023/09/25 11:11:44;;;;;;;4.00;1.63;;;28.20;81.40;;;;;;5106609;28;20146;-67
2023/09/25 11:14:11;;;;;;;3.53;1.73;;;28.30;81.10;;;;;;5090193;28;20113;-67
2023/09/25 11:16:39;;;;;;;5.50;1.48;;;28.50;81.30;;;;;;5089306;28;20048;-68
2023/09/25 11:19:08;;;;;;;3.50;1.67;;;28.50;81.40;;;;;;5109256;28;20048;-68
2023/09/25 11:21:37;;;;;;;2.93;1.50;;;28.70;81.00;;;;;;5087629;28;20075;-68
2023/09/25 11:24:06;;;;;;;5.80;1.60;;;28.50;80.50;;;;;;5093073;28;20059;-68
2023/09/25 11:26:37;;;;;;;4.40;1.73;;;27.90;80.90;;;;;;5090054;28;20883;-68
2023/09/25 11:29:07;;;;;;;2.95;1.67;;;27.40;82.00;;;;;;5091886;28;20454;-68
2023/09/25 11:31:35;;;;;;;2.72;1.30;;;27.50;82.60;;;;;;5091024;28;20086;-68
2023/09/25 11:34:02;;;;;;;5.82;2.00;;;27.50;80.90;;;;;;5088291;28;20047;-68
2023/09/25 11:36:30;;;;;;;5.05;1.90;;;27.60;82.30;;;;;;5089395;28;20544;-69
2023/09/25 11:38:58;;;;;;;2.78;1.30;;;27.40;82.70;;;;;;5088474;28;20047;-68
2023/09/25 11:41:25;;;;;;;4.13;1.27;;;26.90;82.90;;;;;;5090049;28;20715;-68
2023/09/25 11:43:52;;;;;;;2.42;1.42;;;26.20;83.90;;;;;;5087473;28;20575;-68
2023/09/25 11:46:19;;;;;;;2.67;1.50;;;25.70;84.60;;;;;;5087607;28;20066;-68
2023/09/25 11:48:46;;;;;;;3.95;1.77;;;25.50;85.40;;;;;;5089770;28;20407;-68
2023/09/25 11:51:13;;;;;;;4.22;1.70;;;25.20;85.70;;;;;;5110919;28;20131;-68
2023/09/25 11:53:40;;;;;;;2.55;1.40;;;25.00;86.70;;;;;;5087689;28;20055;-68
2023/09/25 11:56:08;;;;;;;3.15;1.75;;;25.00;87.00;;;;;;5086500;28;20055;-68
2023/09/25 11:58:35;;;;;;;3.83;1.50;;;25.50;87.10;;;;;;5085662;28;20044;-68
2023/09/25 12:01:03;;;;;;;3.70;1.55;;;26.20;86.10;;;;;;5086583;28;20052;-68
2023/09/25 12:03:37;;;;;;;3.75;1.42;;;27.40;85.10;;;;;;5084315;28;20052;-67
2023/09/25 12:06:05;;;;;;;3.80;1.63;;;28.20;83.70;;;;;;5089031;28;20052;-68
2023/09/25 12:08:32;;;;;;;3.40;1.88;;;29.10;83.10;;;;;;5081160;28;20098;-68
2023/09/25 12:11:00;;;;;;;5.95;1.63;;;29.40;81.30;;;;;;5092076;28;20052;-68
2023/09/25 12:13:28;;;;;;;6.15;1.70;;;29.90;81.00;;;;;;5089619;28;20105;-68
2023/09/25 12:15:55;;;;;;;2.43;1.47;;;30.00;80.00;;;;;;5091524;28;20048;-68
2023/09/25 12:18:23;;;;;;;2.95;1.70;;;29.90;80.30;;;;;;5091030;28;20557;-68
2023/09/25 12:20:50;;;;;;;3.08;1.27;;;28.90;80.40;;;;;;5086416;28;20048;-68
2023/09/25 12:23:17;;;;;;;3.67;1.50;;;28.30;81.30;;;;;;5089645;28;20064;-68
2023/09/25 12:25:45;;;;;;;3.53;1.40;;;27.70;82.40;;;;;;5087518;28;20048;-68
2023/09/25 12:28:12;;;;;;;2.50;1.33;;;27.40;83.00;;;;;;5090180;28;20172;-68
2023/09/25 12:30:40;;;;;;;3.97;1.80;;;26.90;84.20;;;;;;5085691;28;20040;-68
2023/09/25 12:33:09;;;;;;;4.60;1.60;;;26.20;84.60;;;;;;5089393;28;20489;-67
2023/09/25 12:35:40;;;;;;;3.28;1.65;;;25.40;85.40;;;;;;5087886;28;20047;-67
2023/09/25 12:38:08;;;;;;;4.00;1.60;;;25.00;86.80;;;;;;5093923;28;20044;-67
2023/09/25 12:40:35;;;;;;;3.13;1.60;;;24.40;87.10;;;;;;5084961;28;20037;-67
2023/09/25 12:43:02;;;;;;;4.32;2.03;;;24.00;88.10;;;;;;5090379;28;20059;-68
2023/09/25 12:45:29;;;;;;;5.03;2.10;;;23.70;88.60;;;;;;5085095;28;20048;-67
2023/09/25 12:47:57;;;;;;;4.57;1.98;;;23.50;89.20;;;;;;5090216;28;20508;-67
2023/09/25 12:50:24;;;;;;;4.30;2.00;;;23.40;90.40;;;;;;5086831;28;20064;-67